sensor_id;sensor_type;location;lat;lon;timestamp;P1;durP1;ratioP1;P2;durP2;ratioP2
13244;SDS011;6689;53.400;12.486;2023-04-24T00:00:22;4.05;;;3.50;;
13244;SDS011;6689;53.400;12.486;2023-04-24T00:02:50;6.80;;;3.80;;
13244;SDS011;6689;53.400;12.486;2023-04-24T00:05:23;4.38;;;3.60;;
13244;SDS011;6689;53.400;12.486;2023-04-24T00:07:51;6.13;;;4.03;;
13244;SDS011;6689;53.400;12.486;2023-04-24T00:10:19;3.92;;;3.42;;
13244;SDS011;6689;53.400;12.486;2023-04-24T00:12:46;5.70;;;3.90;;
13244;SDS011;6689;53.400;12.486;2023-04-24T00:15:16;4.68;;;3.47;;
13244;SDS011;6689;53.400;12.486;2023-04-24T00:17:43;5.55;;;3.70;;
13244;SDS011;6689;53.400;12.486;2023-04-24T00:20:11;4.10;;;3.60;;
13244;SDS011;6689;53.400;12.486;2023-04-24T00:22:45;4.20;;;3.80;;
13244;SDS011;6689;53.400;12.486;2023-04-24T00:25:13;4.65;;;4.00;;
13244;SDS011;6689;53.400;12.486;2023-04-24T00:27:40;4.35;;;3.80;;
13244;SDS011;6689;53.400;12.486;2023-04-24T00:30:08;5.63;;;3.88;;
13244;SDS011;6689;53.400;12.486;2023-04-24T00:32:37;3.95;;;3.47;;
13244;SDS011;6689;53.400;12.486;2023-04-24T00:35:05;8.10;;;4.43;;
13244;SDS011;6689;53.400;12.486;2023-04-24T00:37:32;4.68;;;4.05;;
13244;SDS011;6689;53.400;12.486;2023-04-24T00:39:59;6.15;;;3.60;;
13244;SDS011;6689;53.400;12.486;2023-04-24T00:42:27;4.38;;;3.97;;
13244;SDS011;6689;53.400;12.486;2023-04-24T00:44:55;5.13;;;4.03;;
13244;SDS011;6689;53.400;12.486;2023-04-24T00:47:23;7.13;;;4.53;;
13244;SDS011;6689;53.400;12.486;2023-04-24T00:49:53;9.00;;;4.03;;
13244;SDS011;6689;53.400;12.486;2023-04-24T00:52:20;4.57;;;4.15;;
13244;SDS011;6689;53.400;12.486;2023-04-24T00:54:49;4.95;;;4.30;;
13244;SDS011;6689;53.400;12.486;2023-04-24T00:57:16;4.93;;;4.20;;
13244;SDS011;6689;53.400;12.486;2023-04-24T00:59:44;5.53;;;4.47;;
13244;SDS011;6689;53.400;12.486;2023-04-24T01:02:12;7.38;;;4.38;;
13244;SDS011;6689;53.400;12.486;2023-04-24T01:04:40;5.68;;;3.90;;
13244;SDS011;6689;53.400;12.486;2023-04-24T01:07:09;6.50;;;4.35;;
13244;SDS011;6689;53.400;12.486;2023-04-24T01:09:36;5.30;;;4.63;;
13244;SDS011;6689;53.400;12.486;2023-04-24T01:12:06;7.88;;;4.38;;
13244;SDS011;6689;53.400;12.486;2023-04-24T01:14:34;5.88;;;4.85;;
13244;SDS011;6689;53.400;12.486;2023-04-24T01:17:01;5.30;;;4.65;;
13244;SDS011;6689;53.400;12.486;2023-04-24T01:19:28;6.15;;;4.22;;
13244;SDS011;6689;53.400;12.486;2023-04-24T01:21:57;8.75;;;4.63;;
13244;SDS011;6689;53.400;12.486;2023-04-24T01:24:27;7.85;;;4.70;;
13244;SDS011;6689;53.400;12.486;2023-04-24T01:26:55;5.50;;;4.50;;
13244;SDS011;6689;53.400;12.486;2023-04-24T01:29:22;5.75;;;5.15;;
13244;SDS011;6689;53.400;12.486;2023-04-24T01:31:50;5.85;;;4.65;;
13244;SDS011;6689;53.400;12.486;2023-04-24T01:34:18;11.82;;;4.93;;
13244;SDS011;6689;53.400;12.486;2023-04-24T01:36:46;5.50;;;4.82;;
13244;SDS011;6689;53.400;12.486;2023-04-24T01:39:15;7.68;;;4.72;;
13244;SDS011;6689;53.400;12.486;2023-04-24T01:41:44;5.35;;;4.85;;
13244;SDS011;6689;53.400;12.486;2023-04-24T01:44:12;5.30;;;4.80;;
13244;SDS011;6689;53.400;12.486;2023-04-24T01:46:39;6.28;;;4.95;;
13244;SDS011;6689;53.400;12.486;2023-04-24T01:49:09;5.75;;;4.80;;
13244;SDS011;6689;53.400;12.486;2023-04-24T01:51:37;9.43;;;5.45;;
13244;SDS011;6689;53.400;12.486;2023-04-24T01:54:04;6.25;;;5.10;;
13244;SDS011;6689;53.400;12.486;2023-04-24T01:56:32;6.70;;;4.70;;
13244;SDS011;6689;53.400;12.486;2023-04-24T01:59:04;6.60;;;5.55;;
13244;SDS011;6689;53.400;12.486;2023-04-24T02:01:34;5.28;;;4.57;;
13244;SDS011;6689;53.400;12.486;2023-04-24T02:04:02;6.65;;;4.70;;
13244;SDS011;6689;53.400;12.486;2023-04-24T02:06:29;6.40;;;5.10;;
13244;SDS011;6689;53.400;12.486;2023-04-24T02:08:59;6.10;;;5.10;;
13244;SDS011;6689;53.400;12.486;2023-04-24T02:11:26;5.75;;;5.18;;
13244;SDS011;6689;53.400;12.486;2023-04-24T02:13:54;5.25;;;4.63;;
13244;SDS011;6689;53.400;12.486;2023-04-24T02:16:23;5.85;;;5.07;;
13244;SDS011;6689;53.400;12.486;2023-04-24T02:18:50;7.22;;;5.28;;
13244;SDS011;6689;53.400;12.486;2023-04-24T02:21:18;5.90;;;5.22;;
13244;SDS011;6689;53.400;12.486;2023-04-24T02:23:45;7.03;;;5.13;;
13244;SDS011;6689;53.400;12.486;2023-04-24T02:26:13;8.80;;;5.35;;
13244;SDS011;6689;53.400;12.486;2023-04-24T02:28:41;5.68;;;5.18;;
13244;SDS011;6689;53.400;12.486;2023-04-24T02:31:08;6.35;;;5.43;;
13244;SDS011;6689;53.400;12.486;2023-04-24T02:33:37;6.35;;;5.43;;
13244;SDS011;6689;53.400;12.486;2023-04-24T02:36:05;6.07;;;5.47;;
13244;SDS011;6689;53.400;12.486;2023-04-24T02:38:32;8.50;;;5.32;;
13244;SDS011;6689;53.400;12.486;2023-04-24T02:41:00;5.78;;;5.20;;
13244;SDS011;6689;53.400;12.486;2023-04-24T02:43:31;6.97;;;5.43;;
13244;SDS011;6689;53.400;12.486;2023-04-24T02:45:58;7.95;;;5.50;;
13244;SDS011;6689;53.400;12.486;2023-04-24T02:48:26;5.75;;;5.05;;
13244;SDS011;6689;53.400;12.486;2023-04-24T02:50:55;6.13;;;5.50;;
13244;SDS011;6689;53.400;12.486;2023-04-24T02:53:22;6.13;;;5.55;;
13244;SDS011;6689;53.400;12.486;2023-04-24T02:55:50;6.80;;;5.53;;
13244;SDS011;6689;53.400;12.486;2023-04-24T02:58:17;6.25;;;5.63;;
13244;SDS011;6689;53.400;12.486;2023-04-24T03:00:46;6.25;;;5.65;;
13244;SDS011;6689;53.400;12.486;2023-04-24T03:03:15;6.78;;;5.90;;
13244;SDS011;6689;53.400;12.486;2023-04-24T03:05:43;10.05;;;5.63;;
13244;SDS011;6689;53.400;12.486;2023-04-24T03:08:14;6.25;;;5.45;;
13244;SDS011;6689;53.400;12.486;2023-04-24T03:10:42;7.30;;;6.25;;
13244;SDS011;6689;53.400;12.486;2023-04-24T03:13:13;6.82;;;5.90;;
13244;SDS011;6689;53.400;12.486;2023-04-24T03:15:41;7.43;;;5.82;;
13244;SDS011;6689;53.400;12.486;2023-04-24T03:18:09;8.23;;;6.68;;
13244;SDS011;6689;53.400;12.486;2023-04-24T03:20:36;7.68;;;6.88;;
13244;SDS011;6689;53.400;12.486;2023-04-24T03:23:03;7.15;;;6.28;;
13244;SDS011;6689;53.400;12.486;2023-04-24T03:25:32;7.55;;;6.57;;
13244;SDS011;6689;53.400;12.486;2023-04-24T03:28:00;7.68;;;6.13;;
13244;SDS011;6689;53.400;12.486;2023-04-24T03:30:27;7.45;;;6.63;;
13244;SDS011;6689;53.400;12.486;2023-04-24T03:32:54;7.25;;;6.55;;
13244;SDS011;6689;53.400;12.486;2023-04-24T03:35:21;7.60;;;6.90;;
13244;SDS011;6689;53.400;12.486;2023-04-24T03:37:49;8.07;;;7.28;;
13244;SDS011;6689;53.400;12.486;2023-04-24T03:40:16;7.47;;;6.63;;
13244;SDS011;6689;53.400;12.486;2023-04-24T03:42:45;7.85;;;6.35;;
13244;SDS011;6689;53.400;12.486;2023-04-24T03:45:13;8.02;;;6.82;;
13244;SDS011;6689;53.400;12.486;2023-04-24T03:47:40;7.07;;;6.38;;
13244;SDS011;6689;53.400;12.486;2023-04-24T03:50:08;7.78;;;6.85;;
13244;SDS011;6689;53.400;12.486;2023-04-24T03:52:35;7.90;;;7.10;;
13244;SDS011;6689;53.400;12.486;2023-04-24T03:55:03;8.00;;;6.43;;
13244;SDS011;6689;53.400;12.486;2023-04-24T03:57:31;7.55;;;6.75;;
13244;SDS011;6689;53.400;12.486;2023-04-24T04:00:00;6.82;;;6.13;;
13244;SDS011;6689;53.400;12.486;2023-04-24T04:02:31;7.78;;;6.70;;
13244;SDS011;6689;53.400;12.486;2023-04-24T04:05:01;8.63;;;6.63;;
13244;SDS011;6689;53.400;12.486;2023-04-24T04:07:28;7.28;;;6.55;;
13244;SDS011;6689;53.400;12.486;2023-04-24T04:09:56;7.22;;;6.53;;
13244;SDS011;6689;53.400;12.486;2023-04-24T04:12:23;7.32;;;6.63;;
13244;SDS011;6689;53.400;12.486;2023-04-24T04:14:53;8.25;;;7.30;;
13244;SDS011;6689;53.400;12.486;2023-04-24T04:17:22;9.07;;;6.57;;
13244;SDS011;6689;53.400;12.486;2023-04-24T04:19:49;7.65;;;6.95;;
13244;SDS011;6689;53.400;12.486;2023-04-24T04:22:19;8.15;;;7.10;;
13244;SDS011;6689;53.400;12.486;2023-04-24T04:24:46;7.90;;;6.35;;
13244;SDS011;6689;53.400;12.486;2023-04-24T04:27:18;6.80;;;6.20;;
13244;SDS011;6689;53.400;12.486;2023-04-24T04:29:46;8.20;;;6.35;;
13244;SDS011;6689;53.400;12.486;2023-04-24T04:32:13;9.68;;;7.13;;
13244;SDS011;6689;53.400;12.486;2023-04-24T04:34:43;8.93;;;6.70;;
13244;SDS011;6689;53.400;12.486;2023-04-24T04:37:11;7.75;;;6.50;;
13244;SDS011;6689;53.400;12.486;2023-04-24T04:39:39;7.40;;;6.68;;
13244;SDS011;6689;53.400;12.486;2023-04-24T04:42:06;8.45;;;7.32;;
13244;SDS011;6689;53.400;12.486;2023-04-24T04:44:34;7.30;;;6.30;;
13244;SDS011;6689;53.400;12.486;2023-04-24T04:47:03;8.25;;;7.45;;
13244;SDS011;6689;53.400;12.486;2023-04-24T04:49:31;7.03;;;6.32;;
13244;SDS011;6689;53.400;12.486;2023-04-24T04:52:01;7.18;;;6.18;;
13244;SDS011;6689;53.400;12.486;2023-04-24T04:54:28;9.18;;;7.10;;
13244;SDS011;6689;53.400;12.486;2023-04-24T04:57:00;9.73;;;6.80;;
13244;SDS011;6689;53.400;12.486;2023-04-24T04:59:27;7.47;;;6.78;;
13244;SDS011;6689;53.400;12.486;2023-04-24T05:01:54;7.18;;;6.47;;
13244;SDS011;6689;53.400;12.486;2023-04-24T05:04:23;7.70;;;6.93;;
13244;SDS011;6689;53.400;12.486;2023-04-24T05:06:50;7.20;;;6.45;;
13244;SDS011;6689;53.400;12.486;2023-04-24T05:09:20;7.00;;;6.30;;
13244;SDS011;6689;53.400;12.486;2023-04-24T05:11:47;7.72;;;6.20;;
13244;SDS011;6689;53.400;12.486;2023-04-24T05:14:18;7.28;;;6.50;;
13244;SDS011;6689;53.400;12.486;2023-04-24T05:16:46;7.10;;;6.40;;
13244;SDS011;6689;53.400;12.486;2023-04-24T05:19:13;7.47;;;6.00;;
13244;SDS011;6689;53.400;12.486;2023-04-24T05:21:41;16.15;;;7.30;;
13244;SDS011;6689;53.400;12.486;2023-04-24T05:24:08;9.38;;;6.45;;
13244;SDS011;6689;53.400;12.486;2023-04-24T05:26:37;8.20;;;7.38;;
13244;SDS011;6689;53.400;12.486;2023-04-24T05:29:05;7.63;;;6.90;;
13244;SDS011;6689;53.400;12.486;2023-04-24T05:31:32;8.35;;;7.55;;
13244;SDS011;6689;53.400;12.486;2023-04-24T05:33:59;8.10;;;7.30;;
13244;SDS011;6689;53.400;12.486;2023-04-24T05:36:27;9.82;;;7.43;;
13244;SDS011;6689;53.400;12.486;2023-04-24T05:38:54;9.82;;;7.28;;
13244;SDS011;6689;53.400;12.486;2023-04-24T05:41:21;8.45;;;7.55;;
13244;SDS011;6689;53.400;12.486;2023-04-24T05:43:50;7.95;;;6.75;;
13244;SDS011;6689;53.400;12.486;2023-04-24T05:46:17;7.78;;;7.05;;
13244;SDS011;6689;53.400;12.486;2023-04-24T05:48:45;8.27;;;7.47;;
13244;SDS011;6689;53.400;12.486;2023-04-24T05:51:12;8.25;;;7.45;;
13244;SDS011;6689;53.400;12.486;2023-04-24T05:53:42;7.72;;;6.63;;
13244;SDS011;6689;53.400;12.486;2023-04-24T05:56:09;7.90;;;7.10;;
13244;SDS011;6689;53.400;12.486;2023-04-24T05:58:37;9.80;;;7.55;;
13244;SDS011;6689;53.400;12.486;2023-04-24T06:01:06;9.35;;;7.43;;
13244;SDS011;6689;53.400;12.486;2023-04-24T06:03:33;7.55;;;6.85;;
13244;SDS011;6689;53.400;12.486;2023-04-24T06:06:00;7.15;;;6.45;;
13244;SDS011;6689;53.400;12.486;2023-04-24T06:08:27;7.88;;;6.85;;
13244;SDS011;6689;53.400;12.486;2023-04-24T06:10:54;10.07;;;6.85;;
13244;SDS011;6689;53.400;12.486;2023-04-24T06:13:22;7.80;;;6.72;;
13244;SDS011;6689;53.400;12.486;2023-04-24T06:15:49;6.95;;;6.28;;
13244;SDS011;6689;53.400;12.486;2023-04-24T06:18:18;7.15;;;6.15;;
13244;SDS011;6689;53.400;12.486;2023-04-24T06:20:46;7.15;;;6.45;;
13244;SDS011;6689;53.400;12.486;2023-04-24T06:23:14;8.02;;;6.53;;
13244;SDS011;6689;53.400;12.486;2023-04-24T06:25:41;7.30;;;6.60;;
13244;SDS011;6689;53.400;12.486;2023-04-24T06:28:08;7.38;;;6.28;;
13244;SDS011;6689;53.400;12.486;2023-04-24T06:30:35;7.55;;;6.55;;
13244;SDS011;6689;53.400;12.486;2023-04-24T06:33:03;9.48;;;6.90;;
13244;SDS011;6689;53.400;12.486;2023-04-24T06:35:32;7.65;;;6.95;;
13244;SDS011;6689;53.400;12.486;2023-04-24T06:37:59;11.82;;;7.57;;
13244;SDS011;6689;53.400;12.486;2023-04-24T06:40:26;7.15;;;6.45;;
13244;SDS011;6689;53.400;12.486;2023-04-24T06:42:54;7.47;;;6.25;;
13244;SDS011;6689;53.400;12.486;2023-04-24T06:45:23;6.88;;;6.22;;
13244;SDS011;6689;53.400;12.486;2023-04-24T06:47:50;10.13;;;7.10;;
13244;SDS011;6689;53.400;12.486;2023-04-24T06:50:18;6.70;;;6.00;;
13244;SDS011;6689;53.400;12.486;2023-04-24T06:52:47;7.53;;;5.90;;
13244;SDS011;6689;53.400;12.486;2023-04-24T06:55:14;7.70;;;7.00;;
13244;SDS011;6689;53.400;12.486;2023-04-24T06:57:42;7.88;;;6.65;;
13244;SDS011;6689;53.400;12.486;2023-04-24T07:00:12;5.28;;;4.57;;
13244;SDS011;6689;53.400;12.486;2023-04-24T07:02:40;5.78;;;4.45;;
13244;SDS011;6689;53.400;12.486;2023-04-24T07:05:08;4.30;;;3.90;;
13244;SDS011;6689;53.400;12.486;2023-04-24T07:07:36;6.32;;;3.50;;
13244;SDS011;6689;53.400;12.486;2023-04-24T07:10:08;5.45;;;3.15;;
13244;SDS011;6689;53.400;12.486;2023-04-24T07:12:38;5.55;;;3.20;;
13244;SDS011;6689;53.400;12.486;2023-04-24T07:15:06;4.22;;;2.55;;
13244;SDS011;6689;53.400;12.486;2023-04-24T07:17:34;3.53;;;2.45;;
13244;SDS011;6689;53.400;12.486;2023-04-24T07:20:04;2.55;;;2.30;;
13244;SDS011;6689;53.400;12.486;2023-04-24T07:22:34;3.50;;;2.22;;
13244;SDS011;6689;53.400;12.486;2023-04-24T07:25:01;2.60;;;2.03;;
13244;SDS011;6689;53.400;12.486;2023-04-24T07:27:30;3.15;;;2.38;;
13244;SDS011;6689;53.400;12.486;2023-04-24T07:29:58;3.72;;;2.47;;
13244;SDS011;6689;53.400;12.486;2023-04-24T07:32:25;3.47;;;2.47;;
13244;SDS011;6689;53.400;12.486;2023-04-24T07:34:52;2.90;;;2.10;;
13244;SDS011;6689;53.400;12.486;2023-04-24T07:37:22;2.35;;;2.05;;
13244;SDS011;6689;53.400;12.486;2023-04-24T07:39:49;3.28;;;2.00;;
13244;SDS011;6689;53.400;12.486;2023-04-24T07:42:16;2.97;;;2.25;;
13244;SDS011;6689;53.400;12.486;2023-04-24T07:44:45;1.90;;;1.65;;
13244;SDS011;6689;53.400;12.486;2023-04-24T07:47:13;3.35;;;2.28;;
13244;SDS011;6689;53.400;12.486;2023-04-24T07:49:41;2.70;;;2.20;;
13244;SDS011;6689;53.400;12.486;2023-04-24T07:52:08;3.83;;;1.98;;
13244;SDS011;6689;53.400;12.486;2023-04-24T07:54:36;2.58;;;1.85;;
13244;SDS011;6689;53.400;12.486;2023-04-24T07:57:04;4.38;;;2.10;;
13244;SDS011;6689;53.400;12.486;2023-04-24T07:59:34;2.92;;;2.13;;
13244;SDS011;6689;53.400;12.486;2023-04-24T08:02:03;2.22;;;1.50;;
13244;SDS011;6689;53.400;12.486;2023-04-24T08:04:32;2.42;;;1.92;;
13244;SDS011;6689;53.400;12.486;2023-04-24T08:06:59;1.90;;;1.70;;
13244;SDS011;6689;53.400;12.486;2023-04-24T08:09:27;6.13;;;1.83;;
13244;SDS011;6689;53.400;12.486;2023-04-24T08:11:54;2.60;;;2.10;;
13244;SDS011;6689;53.400;12.486;2023-04-24T08:14:21;2.85;;;2.28;;
13244;SDS011;6689;53.400;12.486;2023-04-24T08:16:49;3.67;;;2.08;;
13244;SDS011;6689;53.400;12.486;2023-04-24T08:19:17;5.22;;;2.33;;
13244;SDS011;6689;53.400;12.486;2023-04-24T08:21:45;2.70;;;2.20;;
13244;SDS011;6689;53.400;12.486;2023-04-24T08:24:12;3.28;;;1.70;;
13244;SDS011;6689;53.400;12.486;2023-04-24T08:26:40;2.75;;;1.40;;
13244;SDS011;6689;53.400;12.486;2023-04-24T08:29:08;2.40;;;1.48;;
13244;SDS011;6689;53.400;12.486;2023-04-24T08:31:35;2.92;;;1.70;;
13244;SDS011;6689;53.400;12.486;2023-04-24T08:34:03;3.08;;;1.55;;
13244;SDS011;6689;53.400;12.486;2023-04-24T08:36:32;2.22;;;1.42;;
13244;SDS011;6689;53.400;12.486;2023-04-24T08:39:00;2.10;;;1.50;;
13244;SDS011;6689;53.400;12.486;2023-04-24T08:41:27;1.63;;;1.33;;
13244;SDS011;6689;53.400;12.486;2023-04-24T08:43:55;2.10;;;1.63;;
13244;SDS011;6689;53.400;12.486;2023-04-24T08:46:24;3.55;;;1.85;;
13244;SDS011;6689;53.400;12.486;2023-04-24T08:48:52;1.92;;;1.35;;
13244;SDS011;6689;53.400;12.486;2023-04-24T08:51:19;1.98;;;1.58;;
13244;SDS011;6689;53.400;12.486;2023-04-24T08:53:48;3.47;;;1.60;;
13244;SDS011;6689;53.400;12.486;2023-04-24T08:56:18;3.67;;;1.65;;
13244;SDS011;6689;53.400;12.486;2023-04-24T08:58:45;2.53;;;1.92;;
13244;SDS011;6689;53.400;12.486;2023-04-24T09:01:14;1.98;;;1.23;;
13244;SDS011;6689;53.400;12.486;2023-04-24T09:03:41;2.13;;;1.10;;
13244;SDS011;6689;53.400;12.486;2023-04-24T09:06:09;1.77;;;1.20;;
13244;SDS011;6689;53.400;12.486;2023-04-24T09:08:37;2.85;;;1.23;;
13244;SDS011;6689;53.400;12.486;2023-04-24T09:11:09;3.40;;;1.30;;
13244;SDS011;6689;53.400;12.486;2023-04-24T09:13:37;1.85;;;1.20;;
13244;SDS011;6689;53.400;12.486;2023-04-24T09:16:06;1.83;;;1.27;;
13244;SDS011;6689;53.400;12.486;2023-04-24T09:18:33;1.67;;;1.30;;
13244;SDS011;6689;53.400;12.486;2023-04-24T09:21:01;1.77;;;1.13;;
13244;SDS011;6689;53.400;12.486;2023-04-24T09:23:30;2.55;;;1.20;;
13244;SDS011;6689;53.400;12.486;2023-04-24T09:25:58;1.63;;;1.15;;
13244;SDS011;6689;53.400;12.486;2023-04-24T09:28:29;2.35;;;1.10;;
13244;SDS011;6689;53.400;12.486;2023-04-24T09:31:04;0.85;;;0.80;;
13244;SDS011;6689;53.400;12.486;2023-04-24T09:33:33;1.20;;;0.80;;
13244;SDS011;6689;53.400;12.486;2023-04-24T09:36:01;3.05;;;1.55;;
13244;SDS011;6689;53.400;12.486;2023-04-24T09:38:32;0.98;;;0.82;;
13244;SDS011;6689;53.400;12.486;2023-04-24T09:41:01;1.88;;;1.20;;
13244;SDS011;6689;53.400;12.486;2023-04-24T09:43:30;3.45;;;1.20;;
13244;SDS011;6689;53.400;12.486;2023-04-24T09:45:58;1.33;;;1.13;;
13244;SDS011;6689;53.400;12.486;2023-04-24T09:48:31;1.90;;;1.20;;
13244;SDS011;6689;53.400;12.486;2023-04-24T09:51:00;3.30;;;1.45;;
13244;SDS011;6689;53.400;12.486;2023-04-24T09:53:29;3.35;;;1.20;;
13244;SDS011;6689;53.400;12.486;2023-04-24T09:56:00;2.05;;;1.17;;
13244;SDS011;6689;53.400;12.486;2023-04-24T09:58:30;3.35;;;1.45;;
13244;SDS011;6689;53.400;12.486;2023-04-24T10:00:58;1.50;;;1.10;;
13244;SDS011;6689;53.400;12.486;2023-04-24T10:03:25;2.72;;;1.50;;
13244;SDS011;6689;53.400;12.486;2023-04-24T10:05:58;1.48;;;1.20;;
13244;SDS011;6689;53.400;12.486;2023-04-24T10:08:26;2.60;;;1.60;;
13244;SDS011;6689;53.400;12.486;2023-04-24T10:11:00;2.55;;;1.55;;
13244;SDS011;6689;53.400;12.486;2023-04-24T10:13:27;1.40;;;1.30;;
13244;SDS011;6689;53.400;12.486;2023-04-24T10:15:59;1.75;;;1.15;;
13244;SDS011;6689;53.400;12.486;2023-04-24T10:18:29;2.20;;;1.83;;
13244;SDS011;6689;53.400;12.486;2023-04-24T10:20:57;3.60;;;1.77;;
13244;SDS011;6689;53.400;12.486;2023-04-24T10:23:27;1.35;;;1.20;;
13244;SDS011;6689;53.400;12.486;2023-04-24T10:25:56;2.78;;;1.40;;
13244;SDS011;6689;53.400;12.486;2023-04-24T10:28:24;1.83;;;1.40;;
13244;SDS011;6689;53.400;12.486;2023-04-24T10:30:53;1.83;;;1.00;;
13244;SDS011;6689;53.400;12.486;2023-04-24T10:33:23;1.80;;;1.17;;
13244;SDS011;6689;53.400;12.486;2023-04-24T10:35:52;1.17;;;1.00;;
13244;SDS011;6689;53.400;12.486;2023-04-24T10:38:21;2.10;;;1.38;;
13244;SDS011;6689;53.400;12.486;2023-04-24T10:40:51;2.40;;;1.00;;
13244;SDS011;6689;53.400;12.486;2023-04-24T10:43:33;2.78;;;1.23;;
13244;SDS011;6689;53.400;12.486;2023-04-24T10:46:01;1.95;;;0.93;;
13244;SDS011;6689;53.400;12.486;2023-04-24T10:48:42;1.20;;;0.77;;
13244;SDS011;6689;53.400;12.486;2023-04-24T10:51:13;2.20;;;1.30;;
13244;SDS011;6689;53.400;12.486;2023-04-24T10:53:41;1.55;;;1.00;;
13244;SDS011;6689;53.400;12.486;2023-04-24T10:56:08;2.80;;;1.20;;
13244;SDS011;6689;53.400;12.486;2023-04-24T10:58:38;1.88;;;1.23;;
13244;SDS011;6689;53.400;12.486;2023-04-24T11:01:11;3.85;;;1.33;;
13244;SDS011;6689;53.400;12.486;2023-04-24T11:03:54;2.80;;;1.20;;
13244;SDS011;6689;53.400;12.486;2023-04-24T11:06:28;2.13;;;1.10;;
13244;SDS011;6689;53.400;12.486;2023-04-24T11:09:01;4.10;;;1.40;;
13244;SDS011;6689;53.400;12.486;2023-04-24T11:11:31;7.72;;;1.23;;
13244;SDS011;6689;53.400;12.486;2023-04-24T11:14:06;2.17;;;1.65;;
13244;SDS011;6689;53.400;12.486;2023-04-24T11:16:35;2.05;;;1.65;;
13244;SDS011;6689;53.400;12.486;2023-04-24T11:19:18;5.60;;;1.98;;
13244;SDS011;6689;53.400;12.486;2023-04-24T11:21:54;3.67;;;1.55;;
13244;SDS011;6689;53.400;12.486;2023-04-24T11:24:23;3.20;;;1.75;;
13244;SDS011;6689;53.400;12.486;2023-04-24T11:26:51;2.95;;;1.55;;
13244;SDS011;6689;53.400;12.486;2023-04-24T11:29:20;5.25;;;1.60;;
13244;SDS011;6689;53.400;12.486;2023-04-24T11:31:49;8.20;;;1.67;;
13244;SDS011;6689;53.400;12.486;2023-04-24T11:34:16;3.65;;;1.95;;
13244;SDS011;6689;53.400;12.486;2023-04-24T11:36:45;9.90;;;2.38;;
13244;SDS011;6689;53.400;12.486;2023-04-24T11:39:13;2.70;;;1.42;;
13244;SDS011;6689;53.400;12.486;2023-04-24T11:41:41;3.30;;;2.08;;
13244;SDS011;6689;53.400;12.486;2023-04-24T11:44:08;3.40;;;1.90;;
13244;SDS011;6689;53.400;12.486;2023-04-24T11:46:37;3.65;;;2.00;;
13244;SDS011;6689;53.400;12.486;2023-04-24T11:49:05;2.40;;;1.70;;
13244;SDS011;6689;53.400;12.486;2023-04-24T11:51:34;2.75;;;1.95;;
13244;SDS011;6689;53.400;12.486;2023-04-24T11:54:01;2.95;;;1.70;;
13244;SDS011;6689;53.400;12.486;2023-04-24T11:56:34;1.80;;;1.50;;
13244;SDS011;6689;53.400;12.486;2023-04-24T11:59:03;1.77;;;1.20;;
13244;SDS011;6689;53.400;12.486;2023-04-24T12:01:42;2.33;;;1.40;;
13244;SDS011;6689;53.400;12.486;2023-04-24T12:04:10;2.03;;;1.30;;
13244;SDS011;6689;53.400;12.486;2023-04-24T12:06:39;5.60;;;2.38;;
13244;SDS011;6689;53.400;12.486;2023-04-24T12:09:27;3.20;;;1.40;;
13244;SDS011;6689;53.400;12.486;2023-04-24T12:11:56;5.80;;;1.55;;
13244;SDS011;6689;53.400;12.486;2023-04-24T12:14:23;2.92;;;1.60;;
13244;SDS011;6689;53.400;12.486;2023-04-24T12:16:51;3.60;;;1.60;;
13244;SDS011;6689;53.400;12.486;2023-04-24T12:19:20;1.98;;;1.67;;
13244;SDS011;6689;53.400;12.486;2023-04-24T12:22:00;3.35;;;1.40;;
13244;SDS011;6689;53.400;12.486;2023-04-24T12:24:28;3.15;;;1.58;;
13244;SDS011;6689;53.400;12.486;2023-04-24T12:26:57;2.70;;;1.60;;
13244;SDS011;6689;53.400;12.486;2023-04-24T12:29:26;2.65;;;1.60;;
13244;SDS011;6689;53.400;12.486;2023-04-24T12:31:53;1.50;;;1.35;;
13244;SDS011;6689;53.400;12.486;2023-04-24T12:34:22;3.47;;;1.38;;
13244;SDS011;6689;53.400;12.486;2023-04-24T12:36:51;2.17;;;1.55;;
13244;SDS011;6689;53.400;12.486;2023-04-24T12:39:20;2.10;;;1.02;;
13244;SDS011;6689;53.400;12.486;2023-04-24T12:41:58;2.20;;;1.00;;
13244;SDS011;6689;53.400;12.486;2023-04-24T12:44:29;2.08;;;1.27;;
13244;SDS011;6689;53.400;12.486;2023-04-24T12:46:59;3.63;;;1.70;;
13244;SDS011;6689;53.400;12.486;2023-04-24T12:49:30;1.80;;;1.60;;
13244;SDS011;6689;53.400;12.486;2023-04-24T12:51:58;2.10;;;1.73;;
13244;SDS011;6689;53.400;12.486;2023-04-24T12:54:26;1.90;;;1.60;;
13244;SDS011;6689;53.400;12.486;2023-04-24T12:56:59;2.88;;;1.65;;
13244;SDS011;6689;53.400;12.486;2023-04-24T12:59:27;4.82;;;1.60;;
13244;SDS011;6689;53.400;12.486;2023-04-24T13:01:54;2.10;;;1.90;;
13244;SDS011;6689;53.400;12.486;2023-04-24T13:04:21;2.13;;;1.67;;
13244;SDS011;6689;53.400;12.486;2023-04-24T13:06:49;2.85;;;2.03;;
13244;SDS011;6689;53.400;12.486;2023-04-24T13:09:16;4.30;;;1.80;;
13244;SDS011;6689;53.400;12.486;2023-04-24T13:11:45;4.20;;;2.33;;
13244;SDS011;6689;53.400;12.486;2023-04-24T13:14:13;3.83;;;2.60;;
13244;SDS011;6689;53.400;12.486;2023-04-24T13:16:41;2.42;;;2.20;;
13244;SDS011;6689;53.400;12.486;2023-04-24T13:19:08;3.50;;;2.45;;
13244;SDS011;6689;53.400;12.486;2023-04-24T13:21:35;3.13;;;2.55;;
13244;SDS011;6689;53.400;12.486;2023-04-24T13:24:04;3.35;;;2.80;;
13244;SDS011;6689;53.400;12.486;2023-04-24T13:26:33;3.55;;;2.63;;
13244;SDS011;6689;53.400;12.486;2023-04-24T13:29:01;3.75;;;2.90;;
13244;SDS011;6689;53.400;12.486;2023-04-24T13:31:30;4.45;;;3.17;;
13244;SDS011;6689;53.400;12.486;2023-04-24T13:33:59;4.22;;;3.50;;
13244;SDS011;6689;53.400;12.486;2023-04-24T13:36:26;4.47;;;4.07;;
13244;SDS011;6689;53.400;12.486;2023-04-24T13:38:55;5.63;;;3.83;;
13244;SDS011;6689;53.400;12.486;2023-04-24T13:41:22;5.50;;;4.55;;
13244;SDS011;6689;53.400;12.486;2023-04-24T13:43:50;4.38;;;3.97;;
13244;SDS011;6689;53.400;12.486;2023-04-24T13:46:18;4.72;;;3.78;;
13244;SDS011;6689;53.400;12.486;2023-04-24T13:48:46;7.10;;;4.13;;
13244;SDS011;6689;53.400;12.486;2023-04-24T13:51:13;4.85;;;4.35;;
13244;SDS011;6689;53.400;12.486;2023-04-24T13:53:41;5.05;;;4.63;;
13244;SDS011;6689;53.400;12.486;2023-04-24T13:56:08;4.55;;;3.90;;
13244;SDS011;6689;53.400;12.486;2023-04-24T13:58:37;4.90;;;4.35;;
13244;SDS011;6689;53.400;12.486;2023-04-24T14:01:06;5.05;;;4.55;;
13244;SDS011;6689;53.400;12.486;2023-04-24T14:03:35;9.27;;;5.53;;
13244;SDS011;6689;53.400;12.486;2023-04-24T14:06:04;5.20;;;4.47;;
13244;SDS011;6689;53.400;12.486;2023-04-24T14:08:32;5.40;;;4.75;;
13244;SDS011;6689;53.400;12.486;2023-04-24T14:10:59;4.70;;;4.30;;
13244;SDS011;6689;53.400;12.486;2023-04-24T14:13:27;4.85;;;4.28;;
13244;SDS011;6689;53.400;12.486;2023-04-24T14:15:55;5.60;;;5.07;;
13244;SDS011;6689;53.400;12.486;2023-04-24T14:18:23;4.80;;;4.32;;
13244;SDS011;6689;53.400;12.486;2023-04-24T14:20:56;4.93;;;4.50;;
13244;SDS011;6689;53.400;12.486;2023-04-24T14:23:24;5.70;;;5.20;;
13244;SDS011;6689;53.400;12.486;2023-04-24T14:25:55;7.15;;;5.57;;
13244;SDS011;6689;53.400;12.486;2023-04-24T14:28:23;6.45;;;5.13;;
13244;SDS011;6689;53.400;12.486;2023-04-24T14:30:51;6.10;;;4.95;;
13244;SDS011;6689;53.400;12.486;2023-04-24T14:33:19;5.40;;;4.13;;
13244;SDS011;6689;53.400;12.486;2023-04-24T14:35:46;7.35;;;4.28;;
13244;SDS011;6689;53.400;12.486;2023-04-24T14:38:17;6.72;;;4.50;;
13244;SDS011;6689;53.400;12.486;2023-04-24T14:40:46;4.82;;;4.00;;
13244;SDS011;6689;53.400;12.486;2023-04-24T14:43:13;6.55;;;4.03;;
13244;SDS011;6689;53.400;12.486;2023-04-24T14:45:43;5.03;;;4.00;;
13244;SDS011;6689;53.400;12.486;2023-04-24T14:48:11;5.75;;;5.15;;
13244;SDS011;6689;53.400;12.486;2023-04-24T14:50:38;4.32;;;3.92;;
13244;SDS011;6689;53.400;12.486;2023-04-24T14:53:05;5.88;;;4.55;;
13244;SDS011;6689;53.400;12.486;2023-04-24T14:55:34;4.88;;;4.38;;